createdAt,value
2022-10-28T00:01:25.872Z,4.67
2022-10-28T00:03:55.677Z,3.90
2022-10-28T00:06:26.428Z,5.17
2022-10-28T00:08:55.683Z,4.73
2022-10-28T00:11:26.384Z,5.30
2022-10-28T00:13:55.590Z,5.30
2022-10-28T00:16:27.130Z,5.33
2022-10-28T00:18:55.837Z,5.30
2022-10-28T00:21:26.136Z,5.50
2022-10-28T00:23:55.119Z,4.80
2022-10-28T00:26:25.294Z,4.93
2022-10-28T00:28:55.193Z,4.83
2022-10-28T00:31:26.523Z,5.17
2022-10-28T00:33:55.237Z,4.93
2022-10-28T00:36:25.105Z,4.60
2022-10-28T00:38:55.143Z,4.57
2022-10-28T00:41:25.884Z,5.00
2022-10-28T00:43:55.935Z,5.23
2022-10-28T00:46:30.364Z,4.93
2022-10-28T00:49:01.578Z,4.43
2022-10-28T00:51:32.153Z,4.70
2022-10-28T00:54:00.772Z,5.10
2022-10-28T00:56:32.763Z,4.73
2022-10-28T00:59:03.833Z,5.10
2022-10-28T01:01:34.282Z,4.70
2022-10-28T01:04:02.952Z,4.40
2022-10-28T01:06:31.645Z,5.40
2022-10-28T01:09:00.475Z,5.10
2022-10-28T01:11:41.969Z,4.90
2022-10-28T01:14:26.678Z,5.17
2022-10-28T01:17:05.913Z,4.57
2022-10-28T01:20:20.110Z,4.83
2022-10-28T01:22:53.647Z,4.70
2022-10-28T01:25:40.363Z,4.60
2022-10-28T01:28:16.549Z,5.07
2022-10-28T01:31:03.278Z,5.30
2022-10-28T01:33:35.551Z,4.97
2022-10-28T01:36:09.212Z,5.27
2022-10-28T01:38:44.579Z,4.87
2022-10-28T01:41:17.863Z,4.77
2022-10-28T01:43:51.391Z,5.30
2022-10-28T01:46:26.067Z,5.70
2022-10-28T01:48:57.193Z,4.83
2022-10-28T01:51:28.256Z,5.73
2022-10-28T01:53:58.168Z,4.90
2022-10-28T01:56:28.826Z,5.37
2022-10-28T01:59:00.480Z,4.67
2022-10-28T02:01:31.792Z,5.33
2022-10-28T02:04:00.660Z,4.53
2022-10-28T02:06:32.036Z,4.37
2022-10-28T02:09:16.911Z,5.10
2022-10-28T02:11:58.604Z,4.60
2022-10-28T02:14:37.572Z,5.27
2022-10-28T02:17:14.194Z,5.83
2022-10-28T02:19:49.290Z,5.80
2022-10-28T02:22:21.916Z,5.70
2022-10-28T02:24:56.598Z,4.97
2022-10-28T02:27:32.236Z,4.97
2022-10-28T02:30:05.364Z,5.80
2022-10-28T02:32:38.432Z,5.30
2022-10-28T02:35:10.700Z,5.93
2022-10-28T02:37:40.226Z,5.40
2022-10-28T02:40:12.713Z,4.60
2022-10-28T02:42:45.197Z,5.03
2022-10-28T02:45:16.257Z,5.80
2022-10-28T02:47:48.345Z,5.33
2022-10-28T02:50:19.336Z,5.50
2022-10-28T02:52:51.359Z,4.70
2022-10-28T02:55:21.794Z,5.67
2022-10-28T02:57:50.704Z,4.87
2022-10-28T03:00:22.391Z,5.20
2022-10-28T03:02:52.593Z,5.20
2022-10-28T03:05:21.159Z,5.20
2022-10-28T03:07:49.753Z,4.57
2022-10-28T03:10:18.623Z,4.77
2022-10-28T03:12:47.222Z,5.00
2022-10-28T03:15:15.929Z,5.20
2022-10-28T03:17:44.592Z,5.03
2022-10-28T03:20:14.691Z,5.83
2022-10-28T03:22:43.892Z,6.20
2022-10-28T03:25:12.473Z,4.80
2022-10-28T03:27:41.904Z,4.53
2022-10-28T03:30:11.404Z,4.80
2022-10-28T03:32:42.520Z,4.70
2022-10-28T03:35:11.077Z,5.37
2022-10-28T03:37:43.438Z,4.80
2022-10-28T03:40:13.833Z,5.07
2022-10-28T03:42:42.645Z,3.97
2022-10-28T03:45:12.044Z,5.00
2022-10-28T03:47:41.176Z,5.30
2022-10-28T03:50:10.219Z,4.73
2022-10-28T03:52:38.787Z,5.80
2022-10-28T03:55:09.402Z,4.73
2022-10-28T03:57:38.964Z,4.73
2022-10-28T04:00:08.634Z,4.90
2022-10-28T04:02:37.207Z,5.00
2022-10-28T04:05:06.617Z,5.30
2022-10-28T04:07:35.643Z,5.70
2022-10-28T04:10:04.570Z,4.97
2022-10-28T04:12:34.525Z,5.47
2022-10-28T04:15:03.113Z,5.17
2022-10-28T04:17:31.732Z,4.50
2022-10-28T04:20:00.303Z,5.40
2022-10-28T04:22:28.876Z,5.40
2022-10-28T04:24:57.429Z,4.70
2022-10-28T04:27:25.999Z,4.83
2022-10-28T04:29:55.964Z,5.20
2022-10-28T04:32:24.600Z,4.73
2022-10-28T04:34:53.192Z,4.83
2022-10-28T04:37:21.764Z,5.43
2022-10-28T04:39:50.337Z,5.30
2022-10-28T04:42:18.893Z,4.80
2022-10-28T04:44:47.457Z,5.90
2022-10-28T04:47:17.537Z,4.83
2022-10-28T04:49:46.372Z,6.67
2022-10-28T04:52:15.922Z,4.47
2022-10-28T04:54:44.665Z,5.40
2022-10-28T04:57:13.259Z,5.40
2022-10-28T04:59:41.901Z,5.60
2022-10-28T05:02:10.582Z,5.13
2022-10-28T05:04:40.656Z,5.43
2022-10-28T05:07:09.347Z,5.33
2022-10-28T05:09:37.935Z,5.00
2022-10-28T05:12:07.647Z,5.43
2022-10-28T05:14:36.250Z,5.20
2022-10-28T05:17:04.838Z,5.90
2022-10-28T05:19:33.454Z,4.97
2022-10-28T05:22:03.408Z,5.57
2022-10-28T05:24:31.967Z,6.67
2022-10-28T05:27:00.791Z,5.47
2022-10-28T05:29:33.182Z,5.67
2022-10-28T05:32:02.159Z,5.30
2022-10-28T05:34:30.854Z,5.67
2022-10-28T05:36:59.441Z,5.05
2022-10-28T05:39:29.371Z,5.47
2022-10-28T05:41:57.936Z,6.00
2022-10-28T05:44:26.495Z,6.00
2022-10-28T05:46:55.696Z,5.27
2022-10-28T05:49:24.421Z,5.73
2022-10-28T05:51:53.030Z,5.30
2022-10-28T05:54:21.646Z,4.87
2022-10-28T05:56:51.598Z,5.37
2022-10-28T05:59:20.194Z,5.60
2022-10-28T06:01:48.966Z,5.50
2022-10-28T06:04:17.651Z,5.50
2022-10-28T06:06:46.288Z,6.60
2022-10-28T06:09:14.917Z,5.63
2022-10-28T06:11:42.013Z,6.40
2022-10-28T06:14:11.999Z,5.63
2022-10-28T06:16:40.590Z,5.80
2022-10-28T06:19:09.202Z,5.80
2022-10-28T06:21:37.763Z,5.57
2022-10-28T06:24:12.001Z,6.00
2022-10-28T06:26:40.966Z,4.77
2022-10-28T06:29:11.390Z,6.20
2022-10-28T06:31:40.015Z,6.10
2022-10-28T06:34:08.741Z,7.10
2022-10-28T06:36:37.369Z,5.50
2022-10-28T06:39:06.537Z,5.53
2022-10-28T06:41:35.155Z,7.70
2022-10-28T06:44:04.064Z,6.10
2022-10-28T06:46:35.615Z,5.97
2022-10-28T06:49:04.706Z,7.50
2022-10-28T06:51:33.339Z,6.40
2022-10-28T06:54:01.958Z,6.20
2022-10-28T06:56:30.659Z,5.97
2022-10-28T06:58:59.612Z,6.87
2022-10-28T07:01:28.301Z,6.10
2022-10-28T07:03:59.027Z,6.60
2022-10-28T07:06:27.714Z,5.40
2022-10-28T07:08:56.333Z,5.87
2022-10-28T07:11:25.040Z,6.30
2022-10-28T07:13:53.650Z,6.57
2022-10-28T07:16:22.244Z,6.60
2022-10-28T07:18:50.880Z,6.63
2022-10-28T07:21:24.312Z,7.00
2022-10-28T07:23:52.969Z,6.20
2022-10-28T07:26:21.571Z,7.03
2022-10-28T07:28:50.204Z,6.63
2022-10-28T07:31:18.803Z,6.47
2022-10-28T07:33:53.041Z,6.73
2022-10-28T07:36:23.006Z,6.40
2022-10-28T07:38:51.891Z,7.10
2022-10-28T07:41:21.244Z,7.17
2022-10-28T07:43:50.185Z,7.67
2022-10-28T07:46:20.549Z,8.30
2022-10-28T07:48:49.137Z,8.80
2022-10-28T07:51:17.722Z,10.30
2022-10-28T07:53:47.727Z,8.10
2022-10-28T07:56:16.360Z,7.67
2022-10-28T07:58:45.638Z,9.30
2022-10-28T08:01:17.865Z,8.00
2022-10-28T08:03:47.489Z,6.90
2022-10-28T08:06:17.641Z,7.70
2022-10-28T08:08:48.727Z,7.57
2022-10-28T08:11:18.952Z,6.50
2022-10-28T08:13:47.558Z,6.77
2022-10-28T08:16:16.167Z,7.43
2022-10-28T08:18:45.750Z,6.60
2022-10-28T08:21:15.533Z,5.20
2022-10-28T08:23:46.504Z,6.00
2022-10-28T08:26:17.584Z,6.13
2022-10-28T08:28:46.171Z,5.93
2022-10-28T08:31:14.888Z,7.00
2022-10-28T08:33:45.328Z,6.30
2022-10-28T08:36:15.482Z,7.40
2022-10-28T08:38:45.770Z,7.23
2022-10-28T08:41:25.853Z,7.60
2022-10-28T08:44:03.447Z,7.53
2022-10-28T08:46:46.826Z,7.70
2022-10-28T08:49:17.657Z,6.70
2022-10-28T08:51:51.532Z,7.87
2022-10-28T08:54:24.598Z,7.87
2022-10-28T08:56:56.169Z,7.70
2022-10-28T08:59:28.607Z,9.97
2022-10-28T09:01:59.357Z,6.90
2022-10-28T09:04:32.942Z,7.20
2022-10-28T09:07:02.478Z,7.87
2022-10-28T09:09:31.868Z,6.93
2022-10-28T09:12:10.952Z,6.40
2022-10-28T09:14:54.700Z,7.17
2022-10-28T09:17:29.925Z,6.63
2022-10-28T09:20:04.876Z,7.00
2022-10-28T09:22:38.073Z,6.57
2022-10-28T09:25:13.305Z,7.20
2022-10-28T09:27:54.009Z,7.50
2022-10-28T09:30:34.803Z,5.80
2022-10-28T09:33:15.047Z,6.17
2022-10-28T09:35:44.852Z,6.90
2022-10-28T09:38:19.376Z,5.63
2022-10-28T09:40:51.907Z,5.70
2022-10-28T09:43:26.006Z,6.03
2022-10-28T09:45:57.079Z,6.03
2022-10-28T09:48:28.423Z,6.23
2022-10-28T09:50:58.516Z,6.60
2022-10-28T09:53:39.848Z,8.03
2022-10-28T09:58:47.001Z,8.20
2022-10-28T10:01:16.605Z,7.03
2022-10-28T10:03:45.643Z,7.50
2022-10-28T10:06:17.673Z,6.90
2022-10-28T10:08:47.120Z,7.27
2022-10-28T10:11:26.025Z,6.70
2022-10-28T10:13:56.636Z,6.00
2022-10-28T10:16:29.163Z,5.70
2022-10-28T10:18:58.735Z,6.20
2022-10-28T10:21:42.020Z,6.93
2022-10-28T10:24:29.823Z,5.90
2022-10-28T10:27:01.085Z,6.60
2022-10-28T10:29:32.200Z,6.43
2022-10-28T10:32:14.287Z,5.80
2022-10-28T10:34:45.945Z,5.90
2022-10-28T10:37:20.194Z,6.47
2022-10-28T10:40:01.677Z,5.70
2022-10-28T10:42:30.291Z,5.70
2022-10-28T10:45:18.847Z,6.70
2022-10-28T10:47:47.551Z,5.73
2022-10-28T10:50:24.857Z,6.73
2022-10-28T10:52:55.918Z,6.57
2022-10-28T10:55:35.224Z,5.90
2022-10-28T10:58:04.642Z,6.43
2022-10-28T11:00:38.194Z,6.37
2022-10-28T11:03:08.314Z,5.70
2022-10-28T11:05:38.488Z,6.13
2022-10-28T11:08:26.200Z,6.40
2022-10-28T11:11:05.432Z,5.60
2022-10-28T11:13:35.240Z,6.30
2022-10-28T11:16:07.057Z,5.10
2022-10-28T11:18:41.984Z,5.90
2022-10-28T11:23:59.954Z,5.70
2022-10-28T11:26:28.588Z,5.00
2022-10-28T11:29:07.405Z,5.80
2022-10-28T11:31:51.413Z,6.00
2022-10-28T11:34:30.272Z,6.20
2022-10-28T11:37:09.454Z,5.50
2022-10-28T11:39:43.750Z,4.80
2022-10-28T11:42:21.257Z,4.87
2022-10-28T11:44:54.032Z,5.07
2022-10-28T11:47:34.339Z,5.50
2022-10-28T11:50:15.121Z,5.27
2022-10-28T11:52:54.426Z,6.40
2022-10-28T11:55:30.033Z,5.20
2022-10-28T11:58:08.504Z,5.47
2022-10-28T12:00:52.910Z,5.30
2022-10-28T12:03:48.834Z,5.20
2022-10-28T12:06:20.588Z,4.53
2022-10-28T12:09:02.216Z,5.03
2022-10-28T12:11:42.536Z,4.57
2022-10-28T12:14:17.652Z,3.77
2022-10-28T12:16:50.097Z,4.53
2022-10-28T12:19:22.492Z,4.70
2022-10-28T12:21:58.659Z,6.37
2022-10-28T12:24:28.051Z,4.93
2022-10-28T12:26:58.690Z,5.00
2022-10-28T12:29:29.917Z,5.77
2022-10-28T12:32:00.064Z,5.30
2022-10-28T12:34:33.583Z,5.73
2022-10-28T12:37:06.528Z,5.20
2022-10-28T12:39:38.577Z,4.40
2022-10-28T12:42:12.330Z,5.27
2022-10-28T12:44:41.621Z,4.97
2022-10-28T12:47:17.808Z,4.13
2022-10-28T12:49:56.123Z,4.47
2022-10-28T12:52:37.931Z,5.17
2022-10-28T12:55:16.881Z,4.93
2022-10-28T12:57:48.427Z,4.77
2022-10-28T13:00:19.721Z,4.23
2022-10-28T13:02:50.850Z,4.47
2022-10-28T13:05:24.171Z,4.30
2022-10-28T13:08:22.384Z,4.27
2022-10-28T13:10:56.595Z,4.73
2022-10-28T13:13:44.498Z,4.37
2022-10-28T13:16:38.025Z,4.60
2022-10-28T13:19:18.833Z,4.00
2022-10-28T13:22:13.829Z,3.40
2022-10-28T13:24:51.994Z,3.37
2022-10-28T13:27:21.087Z,4.20
2022-10-28T13:29:52.104Z,3.57
2022-10-28T13:32:34.060Z,3.50
2022-10-28T13:35:13.258Z,3.67
2022-10-28T13:37:47.234Z,3.43
2022-10-28T13:40:44.805Z,3.00
2022-10-28T13:43:20.833Z,3.37
2022-10-28T13:45:52.496Z,4.40
2022-10-28T13:48:46.425Z,4.20
2022-10-28T13:51:33.130Z,4.30
2022-10-28T13:54:03.105Z,4.80
2022-10-28T13:56:38.043Z,4.90
2022-10-28T13:59:18.207Z,5.50
2022-10-28T14:02:07.818Z,5.07
2022-10-28T14:04:43.836Z,4.43
2022-10-28T14:07:22.554Z,4.47
2022-10-28T14:09:54.656Z,4.53
2022-10-28T14:12:26.765Z,4.20
2022-10-28T14:14:59.812Z,4.50
2022-10-28T14:17:31.516Z,4.47
2022-10-28T14:20:00.150Z,4.80
2022-10-28T14:22:31.453Z,4.03
2022-10-28T14:25:01.671Z,3.93
2022-10-28T14:27:43.468Z,3.80
2022-10-28T14:30:18.666Z,3.50
2022-10-28T14:33:17.342Z,4.40
2022-10-28T14:35:46.593Z,4.10
2022-10-28T14:38:47.498Z,4.10
2022-10-28T14:41:31.886Z,3.47
2022-10-28T14:44:07.036Z,3.73
2022-10-28T14:46:49.120Z,3.83
2022-10-28T14:49:21.115Z,3.50
2022-10-28T14:51:50.899Z,4.67
2022-10-28T14:54:29.160Z,4.07
2022-10-28T14:56:59.145Z,4.20
2022-10-28T14:59:29.567Z,4.40
2022-10-28T15:02:04.570Z,3.63
2022-10-28T15:04:33.322Z,4.47
2022-10-28T15:07:02.093Z,5.40
2022-10-28T15:09:32.243Z,6.80
2022-10-28T15:12:04.469Z,5.40
2022-10-28T15:14:36.617Z,5.50
2022-10-28T15:17:12.856Z,5.37
2022-10-28T15:19:41.669Z,5.43
2022-10-28T15:22:16.494Z,5.67
2022-10-28T15:24:57.207Z,6.10
2022-10-28T15:27:29.274Z,5.30
2022-10-28T15:29:57.954Z,6.23
2022-10-28T15:32:32.290Z,4.90
2022-10-28T15:35:01.461Z,5.20
2022-10-28T15:37:31.316Z,5.00
2022-10-28T15:40:13.793Z,8.18
2022-10-28T15:42:46.267Z,8.60
2022-10-28T15:45:20.134Z,4.73
2022-10-28T15:47:49.783Z,4.47
2022-10-28T15:50:25.908Z,5.47
2022-10-28T15:52:57.199Z,6.70
2022-10-28T15:55:41.167Z,7.30
2022-10-28T15:58:41.130Z,5.40
2022-10-28T16:01:11.300Z,5.60
2022-10-28T16:03:44.672Z,4.90
2022-10-28T16:06:23.250Z,5.50
2022-10-28T16:09:01.296Z,5.03
2022-10-28T16:11:30.361Z,6.63
2022-10-28T16:14:02.436Z,5.87
2022-10-28T16:16:32.557Z,6.70
2022-10-28T16:19:06.331Z,6.70
2022-10-28T16:21:35.404Z,6.40
2022-10-28T16:24:04.244Z,6.13
2022-10-28T16:26:33.201Z,6.67
2022-10-28T16:29:03.135Z,6.70
2022-10-28T16:31:32.147Z,5.47
2022-10-28T16:34:00.874Z,6.40
2022-10-28T16:36:30.396Z,7.40
2022-10-28T16:38:58.980Z,6.83
2022-10-28T16:41:27.567Z,7.10
2022-10-28T16:43:56.334Z,7.33
2022-10-28T16:46:26.316Z,8.37
2022-10-28T16:48:54.902Z,7.90
2022-10-28T16:51:23.554Z,7.57
2022-10-28T16:53:52.141Z,8.97
2022-10-28T16:56:20.811Z,8.20
2022-10-28T16:58:49.426Z,9.30
2022-10-28T17:01:21.154Z,9.40
2022-10-28T17:03:51.243Z,9.13
2022-10-28T17:06:19.853Z,8.80
2022-10-28T17:09:02.454Z,9.90
2022-10-28T17:14:05.837Z,9.60
2022-10-28T17:16:35.997Z,8.90
2022-10-28T17:19:07.972Z,9.23
2022-10-28T17:21:36.548Z,9.80
2022-10-28T17:24:05.752Z,10.00
2022-10-28T17:26:34.358Z,9.27
2022-10-28T17:29:02.961Z,7.80
2022-10-28T17:31:31.538Z,8.80
2022-10-28T17:34:00.132Z,8.70
2022-10-28T17:36:30.052Z,9.80
2022-10-28T17:38:58.679Z,9.10
2022-10-28T17:41:27.382Z,9.60
2022-10-28T17:43:56.102Z,10.37
2022-10-28T17:46:24.718Z,11.67
2022-10-28T17:48:53.347Z,10.20
2022-10-28T17:51:24.882Z,11.53
2022-10-28T17:53:58.405Z,11.07
2022-10-28T17:56:27.095Z,11.77
2022-10-28T17:58:55.727Z,10.80
2022-10-28T18:01:24.437Z,10.30
2022-10-28T18:03:53.116Z,11.07
2022-10-28T18:06:21.759Z,11.57
2022-10-28T18:11:27.248Z,10.33
2022-10-28T18:13:56.309Z,10.63
2022-10-28T18:16:27.945Z,11.60
2022-10-28T18:18:56.980Z,9.83
2022-10-28T18:21:25.572Z,9.83
2022-10-28T18:24:03.328Z,9.93
2022-10-28T18:26:34.276Z,10.50
2022-10-28T18:29:04.002Z,9.13
2022-10-28T18:31:33.624Z,9.00
2022-10-28T18:34:02.862Z,10.50
2022-10-28T18:36:34.517Z,7.43
2022-10-28T18:39:04.250Z,8.20
2022-10-28T18:41:36.013Z,7.53
2022-10-28T18:44:05.836Z,8.07
2022-10-28T18:46:37.487Z,8.10
2022-10-28T18:49:06.238Z,8.43
2022-10-28T18:51:35.327Z,8.70
2022-10-28T18:54:04.701Z,8.40
2022-10-28T18:56:34.999Z,9.20
2022-10-28T18:59:04.675Z,8.73
2022-10-28T19:01:33.999Z,8.90
2022-10-28T19:04:04.147Z,7.67
2022-10-28T19:06:34.620Z,7.73
2022-10-28T19:09:04.997Z,7.20
2022-10-28T19:11:35.915Z,6.60
2022-10-28T19:14:05.976Z,7.30
2022-10-28T19:16:35.258Z,7.70
2022-10-28T19:19:05.337Z,7.80
2022-10-28T19:21:34.425Z,7.70
2022-10-28T19:24:03.486Z,8.37
2022-10-28T19:26:33.521Z,7.87
2022-10-28T19:29:04.950Z,7.90
2022-10-28T19:31:35.824Z,7.67
2022-10-28T19:34:04.477Z,8.27
2022-10-28T19:36:33.078Z,7.50
2022-10-28T19:39:01.828Z,7.20
2022-10-28T19:41:31.257Z,7.43
2022-10-28T19:44:00.956Z,8.30
2022-10-28T19:46:32.202Z,8.50
2022-10-28T19:49:03.040Z,7.83
2022-10-28T19:51:33.242Z,8.53
2022-10-28T19:54:02.984Z,7.73
2022-10-28T19:56:33.402Z,8.70
2022-10-28T19:59:03.453Z,7.27
2022-10-28T20:01:35.026Z,8.10
2022-10-28T20:04:04.153Z,6.93
2022-10-28T20:06:34.544Z,6.80
2022-10-28T20:09:03.512Z,7.73
2022-10-28T20:11:33.861Z,7.57
2022-10-28T20:14:04.189Z,7.23
2022-10-28T20:16:34.295Z,8.33
2022-10-28T20:19:03.272Z,7.90
2022-10-28T20:21:34.172Z,9.00
2022-10-28T20:24:05.785Z,7.67
2022-10-28T20:26:36.549Z,7.53
2022-10-28T20:29:06.550Z,7.77
2022-10-28T20:31:38.385Z,9.30
2022-10-28T20:34:07.182Z,8.43
2022-10-28T20:36:37.660Z,7.53
2022-10-28T20:39:09.123Z,8.50
2022-10-28T20:41:38.997Z,9.47
2022-10-28T20:44:08.295Z,7.47
2022-10-28T20:46:38.630Z,7.57
2022-10-28T20:49:08.617Z,7.50
2022-10-28T20:51:37.549Z,6.70
2022-10-28T20:54:06.400Z,7.40
2022-10-28T20:56:37.186Z,6.70
2022-10-28T20:59:06.282Z,7.90
2022-10-28T21:01:37.031Z,8.47
2022-10-28T21:04:08.902Z,7.07
2022-10-28T21:06:38.563Z,6.97
2022-10-28T21:09:07.812Z,6.87
2022-10-28T21:11:36.384Z,7.50
2022-10-28T21:14:04.997Z,6.90
2022-10-28T21:16:33.771Z,7.20
2022-10-28T21:19:02.822Z,7.13
2022-10-28T21:21:32.808Z,7.33
2022-10-28T21:24:01.380Z,6.60
2022-10-28T21:26:29.964Z,6.60
2022-10-28T21:28:58.554Z,6.70
2022-10-28T21:31:27.228Z,7.50
2022-10-28T21:33:55.830Z,7.23
2022-10-28T21:36:24.477Z,6.77
2022-10-28T21:38:57.242Z,7.37
2022-10-28T21:41:26.171Z,6.83
2022-10-28T21:43:55.084Z,6.47
2022-10-28T21:46:24.519Z,6.70
2022-10-28T21:48:53.799Z,6.17
2022-10-28T21:51:22.392Z,5.90
2022-10-28T21:53:50.957Z,7.47
2022-10-28T21:56:21.342Z,6.73
2022-10-28T21:58:50.999Z,6.03
2022-10-28T22:01:21.189Z,8.00
2022-10-28T22:03:49.981Z,7.10
2022-10-28T22:06:18.727Z,6.57
2022-10-28T22:08:47.648Z,7.67
2022-10-28T22:11:17.871Z,7.97
2022-10-28T22:13:48.355Z,6.90
2022-10-28T22:16:18.254Z,7.50
2022-10-28T22:18:46.907Z,6.83
2022-10-28T22:21:17.203Z,6.13
2022-10-28T22:23:46.169Z,6.97
2022-10-28T22:26:18.833Z,6.67
2022-10-28T22:28:49.087Z,7.20
2022-10-28T22:31:19.708Z,6.87
2022-10-28T22:33:48.440Z,6.93
2022-10-28T22:36:18.804Z,7.30
2022-10-28T22:38:47.876Z,7.07
2022-10-28T22:41:18.158Z,7.10
2022-10-28T22:43:50.494Z,5.87
2022-10-28T22:46:19.156Z,6.33
2022-10-28T22:48:48.474Z,7.17
2022-10-28T22:51:17.271Z,6.30
2022-10-28T22:53:46.117Z,6.70
2022-10-28T22:56:16.592Z,6.50
2022-10-28T22:58:45.226Z,6.80
2022-10-28T23:01:16.305Z,6.20
2022-10-28T23:03:46.211Z,7.63
2022-10-28T23:06:16.194Z,7.00
2022-10-28T23:08:45.866Z,7.63
2022-10-28T23:11:15.383Z,6.57
2022-10-28T23:13:44.247Z,7.50
2022-10-28T23:16:15.651Z,6.97
2022-10-28T23:18:44.859Z,5.80
2022-10-28T23:21:14.718Z,6.80
2022-10-28T23:23:49.616Z,5.73
2022-10-28T23:26:21.679Z,5.87
2022-10-28T23:28:52.018Z,6.60
2022-10-28T23:31:22.509Z,7.37
2022-10-28T23:33:51.387Z,6.53
2022-10-28T23:36:19.988Z,6.00
2022-10-28T23:38:48.587Z,6.77
2022-10-28T23:41:18.835Z,6.90
2022-10-28T23:43:48.654Z,5.33
2022-10-28T23:46:17.712Z,6.23
2022-10-28T23:48:47.697Z,6.00
2022-10-28T23:51:16.345Z,6.43
2022-10-28T23:53:44.930Z,6.80
2022-10-28T23:56:13.520Z,5.60
2022-10-28T23:58:42.092Z,6.37
